KHOB/HOB METAR and TAF weather

Enter ICAO airport designator
Station Type Date Time Source
KHOB METAR 2020/01/20 17:50 UTC NOAA

KHOB 201750Z 18010KT 10SM SCT041 BKN070 08/M07 A3051


Station Type Date Time Source
KHOB Decoded METAR 2020/01/20 17:50 UTC NOAA

Hobbs / Lea County, NM, United States (KHOB) 32-41N 103-13W
Jan 20, 2020 - 12:50 PM EST / 2020.01.20 1750 UTC
Wind: from the S (180 degrees) at 12 MPH (10 KT):0
Visibility: 10 mile(s):0
Sky conditions: mostly cloudy
Temperature: 46 F (8 C)
Dew Point: 19 F (-7 C)
Relative Humidity: 33%
Pressure (altimeter): 30.51 in. Hg (1033 hPa)
ob: KHOB 201750Z 18010KT 10SM SCT041 BKN070 08/M07 A3051
cycle: 18

Station Type Date Time Source
KHOB TAF 2020/01/20 18:33 UTC NOAA

TAF KHOB 201731Z 2018/2118 16007KT P6SM BKN050
FM211200 11008KT P6SM OVC050

Example: see airport list